Time;durP1;ratioP1;P1;durP2;ratioP2;P2;SDS_P1;SDS_P2;PMS_P1;PMS_P2;Temp;Humidity;BMP_temperature;BMP_pressure;BME280_temperature;BME280_humidity;BME280_pressure;Samples;Min_cycle;Max_cycle;Signal;HPM_P1;HPM_P2
2023/08/27 00:01:26;;;;;;;0.50;0.20;;;14.70;99.90;;;;;;4962634;28;20515;-82
2023/08/27 00:03:51;;;;;;;0.57;0.25;;;14.70;99.90;;;;;;4962543;28;20047;-83
2023/08/27 00:06:17;;;;;;;0.50;0.20;;;14.60;99.90;;;;;;4963053;28;20178;-81
2023/08/27 00:08:43;;;;;;;0.65;0.20;;;14.60;99.90;;;;;;4960191;28;20042;-82
2023/08/27 00:11:09;;;;;;;0.50;0.30;;;14.60;99.90;;;;;;4968566;28;20055;-84
2023/08/27 00:13:34;;;;;;;0.50;0.20;;;14.60;99.90;;;;;;4949293;28;20043;-81
2023/08/27 00:16:00;;;;;;;0.65;0.30;;;14.60;99.90;;;;;;4945882;28;20038;-88
2023/08/27 00:18:26;;;;;;;0.50;0.20;;;14.60;99.90;;;;;;4955102;28;20534;-86
2023/08/27 00:20:52;;;;;;;0.90;0.30;;;14.60;99.90;;;;;;4944609;28;20049;-81
2023/08/27 00:23:17;;;;;;;0.55;0.20;;;14.70;99.90;;;;;;4962063;28;20046;-84
2023/08/27 00:25:44;;;;;;;0.75;0.30;;;14.70;99.90;;;;;;4964214;28;20491;-83
2023/08/27 00:28:13;;;;;;;0.47;0.20;;;14.70;99.90;;;;;;4948820;28;20027;-84
2023/08/27 00:30:40;;;;;;;0.50;0.30;;;14.70;99.90;;;;;;4961019;28;20031;-84
2023/08/27 00:33:06;;;;;;;0.90;0.30;;;14.70;99.90;;;;;;4943499;28;20395;-86
2023/08/27 00:35:32;;;;;;;0.95;0.20;;;14.70;99.90;;;;;;4945725;28;20041;-83
2023/08/27 00:37:58;;;;;;;0.60;0.30;;;14.70;99.90;;;;;;4946608;28;20031;-82
2023/08/27 00:40:27;;;;;;;1.05;0.30;;;14.70;99.90;;;;;;4947363;28;20146;-83
2023/08/27 00:42:53;;;;;;;0.45;0.30;;;14.70;99.90;;;;;;4962809;28;20126;-85
2023/08/27 00:45:19;;;;;;;1.00;0.20;;;14.70;99.90;;;;;;4964193;28;20392;-89
2023/08/27 00:47:45;;;;;;;0.63;0.30;;;14.70;99.90;;;;;;4961984;28;20024;-83
2023/08/27 00:50:11;;;;;;;0.70;0.20;;;14.80;99.90;;;;;;4968760;28;20077;-82
2023/08/27 00:52:37;;;;;;;0.90;0.30;;;14.80;99.90;;;;;;4950912;28;20070;-83
2023/08/27 00:55:04;;;;;;;0.88;0.22;;;14.80;99.90;;;;;;4944565;28;20050;-87
2023/08/27 00:57:31;;;;;;;1.33;0.20;;;14.80;99.90;;;;;;4952952;28;20468;-85
2023/08/27 00:59:58;;;;;;;1.13;0.20;;;14.80;99.90;;;;;;4951545;28;20035;-82
2023/08/27 01:02:24;;;;;;;1.05;0.30;;;14.80;99.90;;;;;;4967146;28;20042;-86
2023/08/27 01:04:50;;;;;;;1.10;0.30;;;14.80;99.90;;;;;;4962890;28;20452;-83
2023/08/27 01:07:40;;;;;;;1.20;0.35;;;14.90;99.90;;;;;;4960386;28;20042;-82
2023/08/27 01:10:11;;;;;;;0.75;0.30;;;14.80;99.90;;;;;;4948462;28;20322;-87
2023/08/27 01:12:58;;;;;;;0.73;0.28;;;14.80;99.90;;;;;;4952189;28;20121;-82
2023/08/27 01:15:26;;;;;;;0.98;0.20;;;14.90;99.90;;;;;;4960107;28;20027;-85
2023/08/27 01:17:54;;;;;;;0.70;0.30;;;14.80;99.90;;;;;;4947363;28;20035;-81
2023/08/27 01:20:20;;;;;;;0.52;0.20;;;14.80;99.90;;;;;;4963431;28;20022;-87
2023/08/27 01:22:46;;;;;;;1.70;0.22;;;14.90;99.90;;;;;;4951310;28;20411;-82
2023/08/27 01:25:16;;;;;;;1.95;0.30;;;14.90;99.90;;;;;;4944412;28;20024;-86
2023/08/27 01:27:49;;;;;;;;;;;14.80;99.90;;;;;;4974209;28;20038;-85
2023/08/27 01:30:23;;;;;;;0.73;0.10;;;14.90;99.90;;;;;;4966258;28;20405;-83
2023/08/27 01:33:01;;;;;;;0.60;0.20;;;14.90;99.90;;;;;;4970632;28;20047;-83
2023/08/27 01:35:29;;;;;;;0.50;0.20;;;14.90;99.90;;;;;;4942586;28;20121;-87
2023/08/27 01:37:55;;;;;;;0.63;0.28;;;14.90;99.90;;;;;;4961184;28;20027;-82
2023/08/27 01:40:21;;;;;;;1.90;0.38;;;14.90;99.90;;;;;;4962092;28;20034;-83
2023/08/27 01:42:47;;;;;;;1.17;0.55;;;14.90;99.90;;;;;;4960581;28;20029;-83
2023/08/27 01:45:14;;;;;;;0.70;0.30;;;15.00;99.90;;;;;;4961430;28;20050;-81
2023/08/27 01:47:40;;;;;;;0.95;0.30;;;14.90;99.90;;;;;;4948520;28;20540;-83
2023/08/27 01:50:06;;;;;;;0.88;0.30;;;14.90;99.90;;;;;;4967039;28;20192;-86
2023/08/27 01:52:35;;;;;;;1.02;0.38;;;14.90;99.90;;;;;;4946766;28;20065;-84
2023/08/27 01:55:02;;;;;;;0.52;0.30;;;14.90;99.90;;;;;;4952330;28;20023;-83
2023/08/27 01:57:27;;;;;;;0.70;0.30;;;14.90;99.90;;;;;;4951946;28;20046;-83
2023/08/27 01:59:54;;;;;;;1.42;0.30;;;14.90;99.90;;;;;;4952012;28;20078;-84
2023/08/27 02:02:20;;;;;;;0.70;0.30;;;15.00;99.90;;;;;;4965093;28;20436;-83
2023/08/27 02:04:46;;;;;;;1.27;0.30;;;14.90;99.90;;;;;;4943893;28;20493;-83
2023/08/27 02:07:12;;;;;;;0.73;0.30;;;14.90;99.90;;;;;;4960946;28;20526;-86
2023/08/27 02:09:37;;;;;;;0.52;0.22;;;14.90;99.90;;;;;;4946047;28;20039;-82
2023/08/27 02:12:04;;;;;;;0.70;0.20;;;14.90;99.90;;;;;;4945553;28;20035;-82
2023/08/27 02:14:29;;;;;;;0.73;0.20;;;14.90;99.90;;;;;;4961581;28;20057;-81
2023/08/27 02:16:55;;;;;;;1.52;0.30;;;14.90;99.90;;;;;;4948055;28;20483;-87
2023/08/27 02:19:21;;;;;;;0.90;0.30;;;14.90;99.90;;;;;;4952027;28;20026;-91
2023/08/27 02:21:47;;;;;;;0.80;0.20;;;14.90;99.90;;;;;;4951640;28;20065;-84
2023/08/27 02:24:13;;;;;;;0.70;0.30;;;14.80;99.90;;;;;;4956069;28;20035;-82
2023/08/27 02:26:39;;;;;;;0.70;0.22;;;14.80;99.90;;;;;;4960396;28;20046;-92
2023/08/27 02:29:05;;;;;;;0.65;0.20;;;14.80;99.90;;;;;;4963250;28;20032;-83
2023/08/27 02:31:30;;;;;;;0.50;0.30;;;14.80;99.90;;;;;;4946329;28;20117;-90
2023/08/27 02:33:56;;;;;;;1.05;0.40;;;14.90;99.90;;;;;;4951155;28;20043;-82
2023/08/27 02:36:23;;;;;;;0.77;0.40;;;14.80;99.90;;;;;;4962481;28;20034;-82
2023/08/27 02:38:49;;;;;;;1.08;0.40;;;14.80;99.90;;;;;;4943880;28;20027;-83
2023/08/27 02:41:14;;;;;;;0.80;0.30;;;14.80;99.90;;;;;;4945553;28;20027;-82
2023/08/27 02:43:40;;;;;;;1.45;0.40;;;14.70;99.90;;;;;;4941692;28;20118;-85
2023/08/27 02:46:07;;;;;;;1.10;0.30;;;14.70;99.90;;;;;;4944232;28;20026;-83
2023/08/27 02:48:32;;;;;;;0.80;0.30;;;14.70;99.90;;;;;;4962614;28;20058;-83
2023/08/27 02:50:59;;;;;;;0.63;0.30;;;14.70;99.90;;;;;;4945355;28;20046;-82
2023/08/27 02:53:24;;;;;;;1.05;0.30;;;14.70;99.90;;;;;;4962147;28;20039;-82
2023/08/27 02:55:50;;;;;;;0.50;0.30;;;14.70;99.90;;;;;;4947383;28;20024;-86
2023/08/27 02:58:16;;;;;;;1.05;0.40;;;14.70;99.90;;;;;;4944479;28;20034;-82
2023/08/27 03:00:41;;;;;;;1.85;0.30;;;14.60;99.90;;;;;;4946088;28;20057;-82
2023/08/27 03:03:08;;;;;;;1.35;0.50;;;14.50;99.90;;;;;;4942048;28;20039;-81
2023/08/27 03:05:34;;;;;;;1.73;0.40;;;14.50;99.90;;;;;;4949474;28;20035;-82
2023/08/27 03:07:59;;;;;;;0.93;0.40;;;14.50;99.90;;;;;;4948004;28;20051;-83
2023/08/27 03:10:25;;;;;;;1.95;0.32;;;14.50;99.90;;;;;;4944165;28;20455;-82
2023/08/27 03:12:51;;;;;;;0.60;0.38;;;14.50;99.90;;;;;;4960515;28;20130;-83
2023/08/27 03:15:17;;;;;;;1.58;0.30;;;14.40;99.90;;;;;;4944266;28;20554;-85
2023/08/27 03:17:42;;;;;;;0.77;0.40;;;14.50;99.90;;;;;;4940129;28;20081;-84
2023/08/27 03:20:09;;;;;;;1.27;0.40;;;14.40;99.90;;;;;;4942976;28;20039;-81
2023/08/27 03:22:35;;;;;;;0.95;0.35;;;14.50;99.90;;;;;;4950524;28;20042;-82
2023/08/27 03:25:01;;;;;;;0.60;0.30;;;14.50;99.90;;;;;;4965592;28;20024;-84
2023/08/27 03:27:28;;;;;;;0.90;0.30;;;14.50;99.90;;;;;;4945098;28;20027;-82
2023/08/27 03:29:54;;;;;;;0.85;0.35;;;14.50;99.90;;;;;;4944217;28;20369;-82
2023/08/27 03:32:20;;;;;;;1.25;0.40;;;14.60;99.90;;;;;;4944795;28;20039;-81
2023/08/27 03:34:46;;;;;;;1.23;0.40;;;14.60;99.90;;;;;;4948923;28;20113;-84
2023/08/27 03:37:11;;;;;;;0.95;0.35;;;14.50;99.90;;;;;;4956801;28;20035;-82
2023/08/27 03:39:37;;;;;;;1.48;0.40;;;14.50;99.90;;;;;;4961948;28;20034;-82
2023/08/27 03:42:03;;;;;;;1.58;0.40;;;14.60;99.90;;;;;;4949624;28;20031;-85
2023/08/27 03:44:29;;;;;;;0.70;0.30;;;14.50;99.90;;;;;;4945010;28;20039;-82
2023/08/27 03:46:54;;;;;;;1.00;0.40;;;14.60;99.90;;;;;;4938100;29;20027;-82
2023/08/27 03:49:20;;;;;;;1.00;0.40;;;14.60;99.90;;;;;;4951114;28;20411;-82
2023/08/27 03:51:46;;;;;;;1.00;0.47;;;14.60;99.90;;;;;;4945805;28;20077;-82
2023/08/27 03:54:12;;;;;;;0.93;0.50;;;14.60;99.90;;;;;;4966040;28;20038;-83
2023/08/27 03:56:38;;;;;;;2.63;1.10;;;14.60;99.90;;;;;;4951124;28;20046;-84
2023/08/27 03:59:06;;;;;;;3.40;1.05;;;14.60;99.90;;;;;;4942650;28;20089;-80
2023/08/27 04:01:32;;;;;;;2.28;0.98;;;14.40;99.90;;;;;;4944107;28;20420;-83
2023/08/27 04:03:58;;;;;;;2.58;0.98;;;14.40;99.90;;;;;;4944147;28;20054;-83
2023/08/27 04:06:23;;;;;;;2.55;0.70;;;14.30;99.90;;;;;;4956793;28;20170;-87
2023/08/27 04:08:49;;;;;;;1.38;0.40;;;14.20;99.90;;;;;;4958314;28;20027;-85
2023/08/27 04:11:15;;;;;;;0.88;0.35;;;14.10;99.90;;;;;;4946935;28;21501;-85
2023/08/27 04:13:41;;;;;;;1.38;0.40;;;14.10;99.90;;;;;;4956094;28;20035;-81
2023/08/27 04:16:09;;;;;;;2.30;0.50;;;14.00;99.90;;;;;;4954917;28;20079;-82
2023/08/27 04:18:35;;;;;;;1.20;0.40;;;14.00;99.90;;;;;;4958062;28;20037;-80
2023/08/27 04:21:01;;;;;;;1.55;0.40;;;14.00;99.90;;;;;;4961355;28;20114;-81
2023/08/27 04:23:27;;;;;;;0.88;0.30;;;14.10;99.90;;;;;;4943263;28;20123;-82
2023/08/27 04:25:54;;;;;;;0.63;0.20;;;14.10;99.90;;;;;;4941359;28;20027;-83
2023/08/27 04:28:20;;;;;;;1.70;0.20;;;14.10;99.90;;;;;;4962197;28;20134;-85
2023/08/27 04:30:49;;;;;;;0.30;0.10;;;14.20;99.90;;;;;;4957143;28;20551;-85
2023/08/27 04:33:18;;;;;;;1.40;0.25;;;14.20;99.90;;;;;;4942971;28;20134;-86
2023/08/27 04:35:50;;;;;;;1.40;0.30;;;14.10;99.90;;;;;;4951549;28;20027;-84
2023/08/27 04:38:16;;;;;;;1.60;0.50;;;14.00;99.90;;;;;;4939626;28;20038;-84
2023/08/27 04:40:42;;;;;;;2.20;0.30;;;14.00;99.90;;;;;;4949601;28;20051;-85
2023/08/27 04:43:07;;;;;;;0.88;0.20;;;14.00;99.90;;;;;;4949095;28;20483;-85
2023/08/27 04:45:34;;;;;;;2.47;0.40;;;14.00;99.90;;;;;;4952948;28;20043;-85
2023/08/27 04:48:00;;;;;;;3.28;0.60;;;13.90;99.90;;;;;;4961353;28;20066;-86
2023/08/27 04:50:25;;;;;;;2.88;0.43;;;13.80;99.90;;;;;;4949977;28;20058;-86
2023/08/27 04:52:51;;;;;;;1.65;0.40;;;13.80;99.90;;;;;;4964430;28;20082;-86
2023/08/27 04:55:18;;;;;;;0.88;0.30;;;13.80;99.90;;;;;;4948207;28;20515;-85
2023/08/27 04:57:44;;;;;;;0.75;0.20;;;13.80;99.90;;;;;;4954596;28;20022;-85
2023/08/27 05:00:19;;;;;;;0.80;0.20;;;13.80;99.90;;;;;;4963776;28;20118;-85
2023/08/27 05:02:46;;;;;;;0.60;0.17;;;13.80;99.90;;;;;;4950726;28;20046;-84
2023/08/27 05:05:12;;;;;;;0.70;0.20;;;13.80;99.90;;;;;;4947535;28;20058;-84
2023/08/27 05:07:38;;;;;;;0.70;0.10;;;13.90;99.90;;;;;;4948281;28;20023;-84
2023/08/27 05:10:04;;;;;;;1.23;0.10;;;14.00;99.90;;;;;;4964730;28;20027;-85
2023/08/27 05:12:31;;;;;;;0.55;0.13;;;14.00;99.90;;;;;;4960696;28;20436;-86
2023/08/27 05:14:56;;;;;;;0.20;0.10;;;14.10;99.90;;;;;;4947386;28;20093;-84
2023/08/27 05:17:22;;;;;;;0.43;0.10;;;14.10;99.90;;;;;;4950538;28;20034;-84
2023/08/27 05:19:48;;;;;;;1.38;0.10;;;14.10;99.90;;;;;;4947631;28;20027;-84
2023/08/27 05:22:14;;;;;;;0.60;0.10;;;14.10;99.90;;;;;;4961613;28;20031;-84
2023/08/27 05:24:40;;;;;;;0.55;0.20;;;14.10;99.90;;;;;;4945912;28;20542;-85
2023/08/27 05:27:06;;;;;;;0.88;0.10;;;14.20;99.90;;;;;;4948180;28;20114;-84
2023/08/27 05:29:31;;;;;;;0.65;0.10;;;14.10;99.90;;;;;;4964034;28;20023;-87
2023/08/27 05:31:57;;;;;;;0.38;0.10;;;14.10;99.90;;;;;;4969192;28;20121;-85
2023/08/27 05:34:23;;;;;;;0.60;0.17;;;14.10;99.90;;;;;;4947981;28;20183;-84
2023/08/27 05:36:49;;;;;;;0.47;0.10;;;14.10;99.90;;;;;;4964764;28;20020;-85
2023/08/27 05:39:15;;;;;;;0.40;0.10;;;14.10;99.90;;;;;;4959425;28;20019;-85
2023/08/27 05:41:42;;;;;;;0.50;0.10;;;14.10;99.90;;;;;;4952793;28;20023;-85
2023/08/27 05:44:09;;;;;;;0.50;0.20;;;14.10;99.90;;;;;;4965767;28;20026;-85
2023/08/27 05:46:34;;;;;;;0.68;0.20;;;14.10;99.90;;;;;;4963340;28;20388;-85
2023/08/27 05:49:00;;;;;;;0.68;0.20;;;14.20;99.90;;;;;;4965393;28;20386;-84
2023/08/27 05:51:26;;;;;;;1.33;0.20;;;14.20;99.90;;;;;;4950267;28;20030;-84
2023/08/27 05:53:52;;;;;;;0.40;0.20;;;14.20;99.90;;;;;;4945828;28;20152;-84
2023/08/27 05:56:19;;;;;;;0.90;0.20;;;14.20;99.90;;;;;;4945972;28;20024;-84
2023/08/27 05:58:44;;;;;;;0.30;0.10;;;14.20;99.90;;;;;;4947339;28;20081;-83
2023/08/27 06:01:10;;;;;;;0.60;0.20;;;14.20;99.90;;;;;;4948982;28;20031;-85
2023/08/27 06:03:36;;;;;;;0.50;0.10;;;14.30;99.90;;;;;;4944271;28;20078;-84
2023/08/27 06:06:03;;;;;;;0.73;0.20;;;14.40;99.90;;;;;;4962619;28;20450;-85
2023/08/27 06:08:29;;;;;;;0.60;0.13;;;14.50;99.90;;;;;;4965306;28;20027;-82
2023/08/27 06:10:55;;;;;;;1.13;0.20;;;14.60;99.90;;;;;;4944924;28;20044;-83
2023/08/27 06:13:20;;;;;;;0.65;0.17;;;14.70;99.90;;;;;;4961046;28;20403;-82
2023/08/27 06:15:47;;;;;;;0.55;0.10;;;14.70;99.90;;;;;;4950057;28;20421;-84
2023/08/27 06:18:13;;;;;;;0.60;0.10;;;14.70;99.90;;;;;;4945843;28;20367;-83
2023/08/27 06:20:39;;;;;;;0.95;0.10;;;14.80;99.90;;;;;;4946870;28;20391;-83
2023/08/27 06:23:05;;;;;;;0.28;0.10;;;14.80;99.90;;;;;;4952347;28;20378;-83
2023/08/27 06:25:35;;;;;;;0.25;0.10;;;14.80;99.90;;;;;;4958776;28;20078;-83
2023/08/27 06:28:05;;;;;;;0.50;0.20;;;14.90;99.90;;;;;;4961011;28;20151;-86
2023/08/27 06:30:31;;;;;;;0.50;0.10;;;14.80;99.90;;;;;;4962841;28;20035;-85
2023/08/27 06:33:00;;;;;;;0.33;0.10;;;14.70;99.90;;;;;;4947585;28;20085;-84
2023/08/27 06:35:26;;;;;;;0.95;0.17;;;14.70;99.90;;;;;;4950447;28;20038;-83
2023/08/27 06:37:52;;;;;;;0.40;0.10;;;14.60;99.90;;;;;;4966190;28;20031;-84
2023/08/27 06:40:18;;;;;;;0.70;0.20;;;14.60;99.90;;;;;;4949760;28;20364;-87
2023/08/27 06:42:43;;;;;;;1.05;0.20;;;14.70;99.90;;;;;;4951017;28;20031;-84
2023/08/27 06:45:10;;;;;;;0.40;0.20;;;14.70;99.90;;;;;;4949090;28;20030;-83
2023/08/27 06:47:36;;;;;;;0.63;0.20;;;14.70;99.90;;;;;;4949550;28;20026;-83
2023/08/27 06:50:04;;;;;;;0.50;0.20;;;15.00;99.90;;;;;;4949044;28;20034;-85
2023/08/27 06:52:31;;;;;;;1.20;0.20;;;15.30;99.90;;;;;;4962315;28;20050;-85
2023/08/27 06:54:59;;;;;;;0.98;0.20;;;15.50;99.90;;;;;;4947910;28;20035;-84
2023/08/27 06:57:25;;;;;;;1.15;0.30;;;15.50;99.90;;;;;;4949870;28;20030;-84
2023/08/27 06:59:52;;;;;;;1.65;0.30;;;15.70;99.90;;;;;;4945842;28;20094;-85
2023/08/27 07:02:18;;;;;;;0.80;0.20;;;15.80;99.90;;;;;;4946579;28;20027;-84
2023/08/27 07:04:43;;;;;;;0.70;0.17;;;16.00;99.90;;;;;;4949937;28;20062;-85
2023/08/27 07:07:09;;;;;;;0.60;0.20;;;16.20;99.90;;;;;;4945625;28;20026;-85
2023/08/27 07:09:35;;;;;;;0.52;0.20;;;16.20;99.90;;;;;;4963763;28;20672;-86
2023/08/27 07:12:01;;;;;;;0.60;0.20;;;16.30;99.90;;;;;;4965796;28;20078;-84
2023/08/27 07:14:27;;;;;;;1.27;0.20;;;16.40;99.90;;;;;;4949746;28;20113;-85
2023/08/27 07:16:53;;;;;;;1.25;0.30;;;16.50;99.90;;;;;;4945394;28;20471;-83
2023/08/27 07:19:20;;;;;;;1.08;0.32;;;16.60;99.90;;;;;;4948011;28;20376;-83
2023/08/27 07:21:46;;;;;;;0.40;0.20;;;16.60;99.90;;;;;;4943476;28;20502;-85
2023/08/27 07:24:13;;;;;;;1.63;0.20;;;16.80;99.90;;;;;;4960174;28;20038;-84
2023/08/27 07:26:40;;;;;;;1.25;0.25;;;17.00;99.90;;;;;;4947236;28;20037;-84
2023/08/27 07:29:05;;;;;;;1.23;0.30;;;16.90;99.90;;;;;;4949163;28;20069;-86
2023/08/27 07:31:31;;;;;;;0.93;0.35;;;17.00;99.90;;;;;;4944463;28;20024;-82
2023/08/27 07:33:57;;;;;;;0.73;0.25;;;17.10;99.90;;;;;;4943654;28;20043;-83
2023/08/27 07:36:23;;;;;;;0.88;0.30;;;17.10;99.90;;;;;;4962529;28;20107;-82
2023/08/27 07:38:48;;;;;;;1.02;0.40;;;17.20;99.90;;;;;;4959857;28;20502;-82
2023/08/27 07:41:14;;;;;;;2.00;0.30;;;17.20;99.90;;;;;;4945336;28;20051;-83
2023/08/27 07:43:40;;;;;;;0.63;0.30;;;17.30;99.90;;;;;;4945203;28;20019;-84
2023/08/27 07:46:06;;;;;;;1.42;0.30;;;17.60;99.90;;;;;;4966441;28;20130;-84
2023/08/27 07:48:32;;;;;;;0.98;0.25;;;17.60;99.90;;;;;;4964297;28;20131;-84
2023/08/27 07:50:58;;;;;;;1.25;0.40;;;17.80;99.90;;;;;;4957707;28;20086;-86
2023/08/27 07:53:24;;;;;;;1.48;0.30;;;17.90;99.90;;;;;;4964754;28;20803;-83
2023/08/27 07:55:50;;;;;;;0.80;0.22;;;18.10;99.90;;;;;;4946291;28;20139;-86
2023/08/27 07:58:16;;;;;;;0.80;0.30;;;18.10;99.90;;;;;;4960549;28;20031;-83
2023/08/27 08:00:42;;;;;;;1.00;0.30;;;18.10;99.90;;;;;;4948792;28;20050;-83
2023/08/27 08:03:08;;;;;;;1.05;0.30;;;17.90;99.90;;;;;;4947396;28;20114;-82
2023/08/27 08:05:34;;;;;;;1.25;0.40;;;17.80;99.90;;;;;;4955143;28;20432;-82
2023/08/27 08:08:00;;;;;;;1.05;0.30;;;17.70;99.90;;;;;;4942300;28;20035;-85
2023/08/27 08:10:26;;;;;;;1.13;0.40;;;17.80;99.90;;;;;;4956575;28;20028;-82
2023/08/27 08:12:52;;;;;;;2.80;0.50;;;18.10;99.90;;;;;;4944844;28;20106;-81
2023/08/27 08:15:19;;;;;;;2.15;0.40;;;18.10;99.90;;;;;;4959550;28;20385;-82
2023/08/27 08:17:44;;;;;;;1.10;0.40;;;18.20;99.90;;;;;;4963439;28;20046;-88
2023/08/27 08:20:11;;;;;;;1.77;0.40;;;18.80;99.90;;;;;;4942920;28;20027;-83
2023/08/27 08:22:37;;;;;;;0.98;0.30;;;19.00;99.90;;;;;;4946399;28;20047;-81
2023/08/27 08:25:04;;;;;;;1.48;0.40;;;19.40;99.90;;;;;;4958984;28;20027;-84
2023/08/27 08:27:29;;;;;;;2.05;0.40;;;19.50;99.90;;;;;;4961353;28;20362;-83
2023/08/27 08:29:55;;;;;;;1.63;0.43;;;19.80;99.90;;;;;;4957250;28;20042;-83
2023/08/27 08:32:21;;;;;;;1.50;0.40;;;19.60;99.90;;;;;;4966737;28;20050;-83
2023/08/27 08:34:46;;;;;;;1.05;0.38;;;19.90;99.90;;;;;;4966848;28;20027;-83
2023/08/27 08:37:12;;;;;;;1.10;0.50;;;20.10;99.90;;;;;;4951629;28;22850;-82
2023/08/27 08:39:38;;;;;;;1.00;0.50;;;19.30;99.90;;;;;;4949099;28;20042;-85
2023/08/27 08:42:31;;;;;;;1.60;0.40;;;18.70;99.90;;;;;;4963543;28;20475;-82
2023/08/27 08:45:15;;;;;;;1.20;0.40;;;18.50;99.90;;;;;;4973435;28;20072;-81
2023/08/27 08:47:43;;;;;;;0.70;0.30;;;18.10;99.90;;;;;;4965115;28;20035;-83
2023/08/27 08:50:12;;;;;;;1.23;0.30;;;18.20;99.90;;;;;;4951380;28;20121;-83
2023/08/27 08:52:39;;;;;;;0.83;0.30;;;18.50;99.90;;;;;;4950597;28;20057;-83
2023/08/27 08:55:09;;;;;;;1.45;0.40;;;18.40;99.90;;;;;;4944912;28;20639;-82
2023/08/27 08:57:43;;;;;;;1.30;0.38;;;18.60;99.90;;;;;;4959795;28;20070;-83
2023/08/27 09:00:11;;;;;;;1.15;0.50;;;19.00;99.90;;;;;;4945391;28;20400;-80
2023/08/27 09:02:38;;;;;;;3.28;0.60;;;19.30;99.90;;;;;;4955245;28;20035;-83
2023/08/27 09:05:06;;;;;;;1.52;0.30;;;19.40;99.90;;;;;;4937260;28;20069;-83
2023/08/27 09:07:33;;;;;;;1.10;0.38;;;19.60;99.90;;;;;;4946965;28;20110;-81
2023/08/27 09:10:00;;;;;;;1.45;0.40;;;19.00;99.90;;;;;;4952988;28;20039;-83
2023/08/27 09:12:27;;;;;;;1.08;0.30;;;19.20;99.90;;;;;;4932542;28;20031;-82
2023/08/27 09:14:57;;;;;;;1.10;0.30;;;19.70;99.90;;;;;;4931571;28;20090;-83
2023/08/27 09:17:23;;;;;;;1.55;0.30;;;19.90;99.90;;;;;;4946644;28;20042;-81
2023/08/27 09:19:51;;;;;;;1.92;0.30;;;19.80;99.90;;;;;;4945068;28;20113;-84
2023/08/27 09:22:19;;;;;;;3.05;0.30;;;19.30;99.90;;;;;;4951033;28;20081;-81
2023/08/27 09:24:46;;;;;;;1.80;0.20;;;19.20;99.90;;;;;;4935322;28;20055;-81
2023/08/27 09:27:16;;;;;;;1.05;0.20;;;19.20;99.90;;;;;;4934134;28;20369;-82
2023/08/27 09:29:42;;;;;;;1.50;0.30;;;19.40;99.90;;;;;;4933889;28;20110;-81
2023/08/27 09:32:22;;;;;;;1.50;0.30;;;19.60;99.90;;;;;;4946536;28;20482;-82
2023/08/27 09:34:48;;;;;;;0.90;0.30;;;19.90;99.90;;;;;;4945204;28;20038;-80
2023/08/27 09:37:14;;;;;;;1.75;0.45;;;19.90;99.90;;;;;;4940145;28;20039;-80
2023/08/27 09:39:42;;;;;;;2.22;0.40;;;19.30;99.90;;;;;;4935228;28;20719;-81
2023/08/27 09:42:11;;;;;;;3.00;0.30;;;19.70;99.90;;;;;;4956011;28;20031;-82
2023/08/27 09:44:37;;;;;;;0.95;0.30;;;20.30;99.90;;;;;;4958135;28;20031;-82
2023/08/27 09:47:05;;;;;;;1.27;0.22;;;20.50;99.90;;;;;;4947052;28;20034;-83
2023/08/27 09:49:31;;;;;;;1.55;0.38;;;20.80;99.90;;;;;;4945651;28;20046;-82
2023/08/27 09:51:58;;;;;;;1.33;0.38;;;20.20;99.90;;;;;;4959547;28;20035;-81
2023/08/27 09:54:29;;;;;;;0.82;0.20;;;19.20;99.90;;;;;;4961553;28;20387;-82
2023/08/27 09:56:59;;;;;;;1.73;0.20;;;19.40;99.90;;;;;;4965898;28;20027;-83
2023/08/27 09:59:26;;;;;;;0.60;0.20;;;19.90;99.90;;;;;;4960989;28;20039;-83
2023/08/27 10:01:53;;;;;;;1.33;0.30;;;20.40;99.90;;;;;;4957183;28;20090;-81
2023/08/27 10:04:20;;;;;;;1.63;0.22;;;20.20;99.90;;;;;;4918610;28;1120929;-85
2023/08/27 10:06:47;;;;;;;1.02;0.20;;;20.80;99.90;;;;;;4948630;28;20031;-81
2023/08/27 10:09:16;;;;;;;1.45;0.20;;;21.20;99.90;;;;;;4946243;28;20034;-83
2023/08/27 10:11:44;;;;;;;1.85;0.28;;;21.50;99.90;;;;;;4962637;28;20027;-85
2023/08/27 10:14:10;;;;;;;2.72;0.30;;;21.20;99.90;;;;;;4972648;28;20399;-80
2023/08/27 10:16:37;;;;;;;1.13;0.22;;;21.30;99.90;;;;;;4959979;28;20023;-85
2023/08/27 10:19:04;;;;;;;1.27;0.20;;;21.20;99.90;;;;;;4956168;28;20034;-83
2023/08/27 10:21:30;;;;;;;2.47;0.30;;;21.30;99.90;;;;;;4963646;28;20039;-82
2023/08/27 10:23:57;;;;;;;1.38;0.20;;;21.70;99.90;;;;;;4946982;28;20038;-82
2023/08/27 10:26:23;;;;;;;1.52;0.20;;;21.10;99.90;;;;;;4932626;28;20181;-82
2023/08/27 10:28:52;;;;;;;2.17;0.30;;;21.50;99.90;;;;;;4933011;28;20069;-83
2023/08/27 10:31:17;;;;;;;1.73;0.38;;;21.80;99.90;;;;;;4932002;28;20037;-83
2023/08/27 10:33:43;;;;;;;0.70;0.20;;;20.90;99.90;;;;;;4946541;28;20038;-83
2023/08/27 10:36:20;;;;;;;0.77;0.20;;;21.00;99.90;;;;;;4942948;28;20153;-80
2023/08/27 10:38:47;;;;;;;0.95;0.20;;;21.90;99.90;;;;;;4926396;28;20058;-83
2023/08/27 10:41:21;;;;;;;1.30;0.17;;;21.70;99.90;;;;;;4946154;28;20111;-81
2023/08/27 10:43:47;;;;;;;1.23;0.30;;;22.10;99.90;;;;;;4954835;28;20519;-81
2023/08/27 10:46:20;;;;;;;0.98;0.20;;;21.90;99.90;;;;;;4958651;28;20483;-83
2023/08/27 10:48:50;;;;;;;2.78;0.20;;;21.80;99.90;;;;;;4944997;28;20027;-82
2023/08/27 10:51:18;;;;;;;0.98;0.10;;;21.40;99.90;;;;;;4942448;28;20058;-79
2023/08/27 10:53:50;;;;;;;0.70;0.17;;;21.80;99.90;;;;;;4938165;28;20089;-82
2023/08/27 10:56:26;;;;;;;0.90;0.25;;;22.20;99.90;;;;;;4925077;28;20085;-83
2023/08/27 10:58:52;;;;;;;1.05;0.20;;;22.10;99.90;;;;;;4949246;28;20026;-83
2023/08/27 11:01:18;;;;;;;1.65;0.20;;;22.00;99.90;;;;;;4957353;28;20550;-82
2023/08/27 11:03:57;;;;;;;2.42;0.20;;;22.60;99.90;;;;;;4953018;28;20050;-82
2023/08/27 11:06:33;;;;;;;0.93;0.17;;;22.40;99.90;;;;;;4953130;28;20061;-80
2023/08/27 11:09:00;;;;;;;1.02;0.20;;;22.60;99.90;;;;;;4947186;28;20033;-83
2023/08/27 11:11:26;;;;;;;1.75;0.20;;;21.50;99.90;;;;;;4957262;28;20042;-83
2023/08/27 11:14:08;;;;;;;1.52;0.20;;;21.20;99.90;;;;;;4957880;28;20138;-81
2023/08/27 11:16:48;;;;;;;1.13;0.20;;;20.90;99.90;;;;;;4949602;28;20027;-83
2023/08/27 11:19:23;;;;;;;0.47;0.15;;;20.50;99.90;;;;;;4944831;28;20558;-82
2023/08/27 11:21:48;;;;;;;0.93;0.10;;;20.60;99.90;;;;;;4940272;28;20552;-82
2023/08/27 11:24:16;;;;;;;1.05;0.20;;;20.60;99.90;;;;;;4957103;28;20023;-82
2023/08/27 11:26:42;;;;;;;4.10;0.20;;;20.40;99.90;;;;;;4941830;28;20027;-83
2023/08/27 11:29:09;;;;;;;1.25;0.10;;;20.00;99.90;;;;;;4940211;28;20118;-82
2023/08/27 11:31:40;;;;;;;2.22;0.22;;;20.30;99.90;;;;;;4939705;28;20813;-82
2023/08/27 11:34:06;;;;;;;2.83;0.28;;;21.00;99.90;;;;;;4965882;28;20054;-82
2023/08/27 11:36:33;;;;;;;0.35;0.10;;;20.90;99.90;;;;;;4955554;28;20030;-83
2023/08/27 11:39:00;;;;;;;0.30;0.08;;;19.80;99.90;;;;;;4937475;28;20034;-82
2023/08/27 11:41:36;;;;;;;0.80;0.10;;;18.60;99.90;;;;;;4964952;28;20495;-82
2023/08/27 11:44:10;;;;;;;0.40;0.10;;;18.50;99.90;;;;;;4938083;28;20048;-83
2023/08/27 11:46:37;;;;;;;0.70;0.10;;;18.50;99.90;;;;;;4937064;28;20383;-82
2023/08/27 11:49:04;;;;;;;1.30;0.15;;;18.20;99.90;;;;;;4954309;28;20122;-83
2023/08/27 11:51:30;;;;;;;0.75;0.15;;;17.40;99.90;;;;;;4955757;28;20027;-83
2023/08/27 11:53:56;;;;;;;0.52;0.20;;;16.80;99.90;;;;;;4954944;28;20562;-82
2023/08/27 11:56:23;;;;;;;1.00;0.20;;;16.40;99.90;;;;;;4957745;28;20019;-82
2023/08/27 11:58:52;;;;;;;1.73;0.20;;;16.10;99.90;;;;;;4944543;28;20031;-83
2023/08/27 12:01:22;;;;;;;0.68;0.10;;;15.90;99.90;;;;;;4941881;28;20019;-83
2023/08/27 12:03:48;;;;;;;1.38;0.15;;;15.60;99.90;;;;;;4944061;28;20054;-84
2023/08/27 12:06:19;;;;;;;0.30;0.00;;;15.00;99.90;;;;;;4943866;28;20038;-83
2023/08/27 12:08:49;;;;;;;0.55;0.10;;;14.70;99.90;;;;;;4949352;28;20038;-82
2023/08/27 12:11:16;;;;;;;0.60;0.10;;;14.70;99.90;;;;;;4953014;28;20101;-84
2023/08/27 12:13:47;;;;;;;0.30;0.03;;;14.80;99.90;;;;;;4945841;28;20035;-84
2023/08/27 12:16:14;;;;;;;1.85;0.28;;;14.60;99.90;;;;;;4945008;28;20078;-82
2023/08/27 12:18:44;;;;;;;0.45;0.10;;;14.40;99.90;;;;;;4963249;28;20027;-83
2023/08/27 12:21:09;;;;;;;0.93;0.10;;;14.50;99.90;;;;;;4960722;28;20106;-82
2023/08/27 12:23:36;;;;;;;0.85;0.05;;;14.60;99.90;;;;;;4960771;28;20655;-82
2023/08/27 12:26:02;;;;;;;0.35;0.00;;;14.80;99.90;;;;;;4956444;28;20031;-83
2023/08/27 12:28:28;;;;;;;0.52;0.10;;;14.70;99.90;;;;;;4964198;28;20083;-79
2023/08/27 12:30:58;;;;;;;1.33;0.00;;;14.80;99.90;;;;;;4960092;28;20027;-84
2023/08/27 12:33:37;;;;;;;1.08;0.00;;;14.90;99.90;;;;;;4955770;28;20043;-82
2023/08/27 12:36:07;;;;;;;0.05;0.00;;;15.30;99.90;;;;;;4945306;28;20054;-84
2023/08/27 12:38:36;;;;;;;1.13;0.00;;;15.30;99.90;;;;;;4955044;28;20045;-82
2023/08/27 12:41:03;;;;;;;0.17;0.00;;;15.30;99.90;;;;;;4959243;28;20023;-82
2023/08/27 12:43:29;;;;;;;0.10;0.00;;;15.30;99.90;;;;;;4948005;28;20620;-82
2023/08/27 12:45:55;;;;;;;1.17;0.00;;;15.30;99.90;;;;;;4947685;28;20031;-82
2023/08/27 12:48:20;;;;;;;0.30;0.10;;;15.10;99.90;;;;;;4944033;28;20041;-83